Time;durP1;ratioP1;P1;durP2;ratioP2;P2;SDS_P1;SDS_P2;PMS_P1;PMS_P2;Temp;Humidity;BMP_temperature;BMP_pressure;BME280_temperature;BME280_humidity;BME280_pressure;Samples;Min_cycle;Max_cycle;Signal;HPM_P1;HPM_P2
2023/05/25 00:00:40;;;;;;;6.07;3.28;;;;;;;5.91;100.00;93245.00;2595061;22;20014;-79
2023/05/25 00:01:42;;;;;;;13.35;3.85;;;;;;;5.92;100.00;93247.28;2582378;22;20000;-80
2023/05/25 00:02:45;;;;;;;12.15;3.63;;;;;;;5.97;100.00;93244.28;2594645;22;20848;-78
2023/05/25 00:03:46;;;;;;;9.15;3.33;;;;;;;5.93;100.00;93242.78;2608005;22;20422;-80
2023/05/25 00:04:47;;;;;;;13.80;4.10;;;;;;;5.94;100.00;93247.69;2607654;22;20010;-80
2023/05/25 00:05:49;;;;;;;14.32;4.53;;;;;;;5.93;100.00;93250.72;2595047;22;20003;-80
2023/05/25 00:06:50;;;;;;;8.30;3.45;;;;;;;5.90;100.00;93240.84;2607833;22;20357;-79
2023/05/25 00:07:54;;;;;;;6.97;3.72;;;;;;;5.93;100.00;93240.88;2607804;22;20045;-78
2023/05/25 00:08:56;;;;;;;12.95;3.72;;;;;;;5.96;100.00;93241.97;2582959;22;20335;-79
2023/05/25 00:09:57;;;;;;;11.57;3.80;;;;;;;6.03;100.00;93244.63;2595299;22;20007;-79
2023/05/25 00:10:58;;;;;;;9.30;3.72;;;;;;;5.98;100.00;93248.44;2608254;22;20061;-79
2023/05/25 00:11:59;;;;;;;9.93;3.33;;;;;;;5.96;100.00;93245.38;2608799;22;20068;-80
2023/05/25 00:13:01;;;;;;;10.48;3.70;;;;;;;6.00;100.00;93251.44;2607542;22;20322;-78
2023/05/25 00:14:02;;;;;;;13.57;4.00;;;;;;;5.97;100.00;93246.16;2595098;22;20003;-80
2023/05/25 00:15:06;;;;;;;8.23;3.42;;;;;;;6.01;100.00;93252.97;2594805;22;20057;-80
2023/05/25 00:16:07;;;;;;;10.95;3.45;;;;;;;6.03;100.00;93248.03;2583692;22;20390;-80
2023/05/25 00:17:08;;;;;;;9.30;3.92;;;;;;;6.09;100.00;93247.63;2607964;22;19998;-80
2023/05/25 00:18:10;;;;;;;8.63;3.15;;;;;;;5.99;100.00;93249.94;2607333;22;20430;-78
2023/05/25 00:19:11;;;;;;;9.10;3.17;;;;;;;6.05;100.00;93248.41;2595256;22;19999;-76
2023/05/25 00:20:13;;;;;;;11.70;4.10;;;;;;;6.05;100.00;93253.69;2594529;22;20461;-81
2023/05/25 00:21:14;;;;;;;9.52;3.40;;;;;;;6.13;100.00;93251.03;2594135;22;20012;-81
2023/05/25 00:22:16;;;;;;;10.60;3.30;;;;;;;6.12;100.00;93246.88;2582302;22;20079;-81
2023/05/25 00:23:17;;;;;;;10.32;3.53;;;;;;;6.08;100.00;93241.59;2607360;22;20021;-79
2023/05/25 00:24:18;;;;;;;14.07;3.58;;;;;;;6.08;100.00;93240.81;2607821;22;20438;-80
2023/05/25 00:25:19;;;;;;;11.45;3.80;;;;;;;6.03;100.00;93237.44;2607885;22;20382;-78
2023/05/25 00:26:20;;;;;;;9.20;3.60;;;;;;;5.97;100.00;93236.31;2594963;22;20030;-77
2023/05/25 00:27:23;;;;;;;8.98;3.35;;;;;;;6.01;100.00;93237.06;2595132;22;19999;-81
2023/05/25 00:28:24;;;;;;;10.02;3.33;;;;;;;6.03;100.00;93234.00;2595369;22;20679;-79
2023/05/25 00:29:30;;;;;;;10.68;3.67;;;;;;;6.02;100.00;93227.97;2582212;22;20087;-79
2023/05/25 00:30:31;;;;;;;10.18;3.35;;;;;;;6.01;100.00;93226.44;2571700;22;20644;-79
2023/05/25 00:31:32;;;;;;;9.05;3.17;;;;;;;5.99;100.00;93231.38;2594736;22;20095;-80
2023/05/25 00:32:35;;;;;;;10.18;3.50;;;;;;;6.03;100.00;93226.81;2594727;22;20011;-79
2023/05/25 00:33:36;;;;;;;12.32;3.60;;;;;;;6.07;100.00;93234.00;2595253;22;20090;-80
2023/05/25 00:34:37;;;;;;;9.27;3.53;;;;;;;6.13;100.00;93229.81;2582083;22;20004;-81
2023/05/25 00:35:38;;;;;;;10.85;3.65;;;;;;;6.01;100.00;93228.31;2582390;22;20470;-79
2023/05/25 00:36:42;;;;;;;7.93;3.17;;;;;;;6.02;100.00;93229.84;2607255;22;20003;-80
2023/05/25 00:37:50;;;;;;;8.57;3.45;;;;;;;6.12;100.00;93237.03;2607569;22;20361;-80
2023/05/25 00:38:51;;;;;;;14.98;3.70;;;;;;;6.23;100.00;93235.09;2583656;22;20048;-80
2023/05/25 00:39:52;;;;;;;10.35;3.65;;;;;;;6.14;100.00;93226.00;2581718;22;20036;-77
2023/05/25 00:40:55;;;;;;;11.68;3.40;;;;;;;6.17;100.00;93235.88;2594523;22;20010;-80
2023/05/25 00:41:57;;;;;;;8.27;3.40;;;;;;;6.20;100.00;93232.47;2607955;22;20018;-77
2023/05/25 00:42:59;;;;;;;11.68;4.40;;;;;;;6.18;100.00;93235.47;2582290;22;20015;-80
2023/05/25 00:44:00;;;;;;;9.52;3.55;;;;;;;6.16;100.00;93242.31;2594991;22;19999;-78
2023/05/25 00:45:01;;;;;;;10.63;4.18;;;;;;;6.19;100.00;93233.56;2594611;22;20073;-79
2023/05/25 00:46:02;;;;;;;15.93;3.60;;;;;;;6.26;100.00;93233.56;2594720;22;20004;-78
2023/05/25 00:47:04;;;;;;;11.15;3.50;;;;;;;6.24;100.00;93230.56;2595324;22;20019;-78
2023/05/25 00:48:07;;;;;;;14.18;3.70;;;;;;;6.25;100.00;93232.06;2595448;22;20010;-78
2023/05/25 00:49:08;;;;;;;10.20;3.47;;;;;;;6.18;100.00;93229.41;2582877;22;20011;-81
2023/05/25 00:50:16;;;;;;;14.65;3.40;;;;;;;6.21;100.00;93228.66;2582234;22;20015;-81
2023/05/25 00:51:17;;;;;;;16.40;4.47;;;;;;;6.23;100.00;93224.47;2607732;22;19999;-78
2023/05/25 00:52:17;;;;;;;7.68;3.60;;;;;;;6.20;100.00;93221.84;2607550;22;19999;-79
2023/05/25 00:53:19;;;;;;;11.70;3.25;;;;;;;6.19;100.00;93222.97;2594661;22;20003;-78
2023/05/25 00:54:20;;;;;;;11.25;3.53;;;;;;;6.18;100.00;93230.16;2582066;22;20415;-80
2023/05/25 00:55:24;;;;;;;10.80;3.38;;;;;;;6.21;100.00;93223.34;2569744;22;20005;-80
2023/05/25 00:56:31;;;;;;;13.07;4.15;;;;;;;6.22;100.00;93224.84;2583385;22;20390;-78
2023/05/25 00:57:36;;;;;;;10.18;3.60;;;;;;;6.23;100.00;93223.69;2594676;22;20004;-79
2023/05/25 00:58:42;;;;;;;8.73;3.67;;;;;;;6.24;100.00;93212.72;2594819;22;20051;-81
2023/05/25 00:59:47;;;;;;;12.80;4.10;;;;;;;6.27;100.00;93221.78;2571397;22;20008;-80
2023/05/25 01:00:52;;;;;;;12.18;3.35;;;;;;;6.39;100.00;93213.41;2570740;22;19996;-79
2023/05/25 01:01:55;;;;;;;13.45;3.65;;;;;;;6.39;100.00;93210.75;2584305;22;20003;-80
2023/05/25 01:02:58;;;;;;;16.92;4.03;;;;;;;6.39;100.00;93213.41;2583116;22;20004;-81
2023/05/25 01:04:02;;;;;;;15.25;3.83;;;;;;;6.41;100.00;93210.34;2582835;22;20442;-78
2023/05/25 01:05:06;;;;;;;13.88;4.45;;;;;;;6.44;100.00;93213.00;2583489;22;20054;-79
2023/05/25 01:06:12;;;;;;;11.63;3.70;;;;;;;6.33;100.00;93208.91;2595461;22;19999;-79
2023/05/25 01:07:17;;;;;;;17.00;3.95;;;;;;;6.34;100.00;93219.13;2583506;22;20381;-78
2023/05/25 01:08:21;;;;;;;17.35;4.03;;;;;;;6.41;100.00;93215.66;2595387;22;19999;-79
2023/05/25 01:09:25;;;;;;;10.52;3.60;;;;;;;6.33;100.00;93211.56;2607403;22;20003;-81
2023/05/25 01:10:30;;;;;;;11.70;3.47;;;;;;;6.33;100.00;93217.63;2595224;22;20556;-79
2023/05/25 01:11:36;;;;;;;9.13;3.40;;;;;;;6.39;100.00;93207.34;2595058;22;20011;-79
2023/05/25 01:12:41;;;;;;;10.38;3.65;;;;;;;6.36;100.00;93208.88;2583284;22;20370;-79
2023/05/25 01:13:42;;;;;;;12.32;3.65;;;;;;;6.36;100.00;93214.16;2571853;22;20004;-79
2023/05/25 01:14:45;;;;;;;8.40;3.25;;;;;;;6.50;100.00;93208.06;2595705;22;20037;-81
2023/05/25 01:15:47;;;;;;;11.48;4.05;;;;;;;6.44;100.00;93214.91;2608110;22;19999;-79
2023/05/25 01:16:48;;;;;;;15.50;3.95;;;;;;;6.39;100.00;93208.09;2595341;22;20402;-80
2023/05/25 01:17:52;;;;;;;14.07;3.83;;;;;;;6.39;100.00;93216.06;2583078;22;20004;-81
2023/05/25 01:18:56;;;;;;;19.73;4.03;;;;;;;6.37;100.00;93207.00;2571565;22;20005;-78
2023/05/25 01:19:57;;;;;;;12.55;4.30;;;;;;;6.36;100.00;93208.88;2583668;22;20462;-77
2023/05/25 01:21:16;;;;;;;8.52;3.70;;;;;;;6.40;100.00;93206.94;2582420;22;20004;-80
2023/05/25 01:22:37;;;;;;;12.07;3.50;;;;;;;6.39;100.00;93202.03;2590256;22;20071;-82
2023/05/25 01:23:45;;;;;;;8.35;3.30;;;;;;;6.36;100.00;93203.56;2599489;22;20401;-77
2023/05/25 01:25:01;;;;;;;10.63;3.70;;;;;;;6.38;100.00;93208.50;2596668;22;20007;-80
2023/05/25 01:26:08;;;;;;;15.85;4.03;;;;;;;6.40;100.00;93209.59;2585233;22;20004;-80
2023/05/25 01:27:24;;;;;;;15.50;4.10;;;;;;;6.39;100.00;93202.78;2572469;22;20467;-79
2023/05/25 01:28:29;;;;;;;14.57;3.70;;;;;;;6.37;100.00;93213.06;2575609;22;20496;-81
2023/05/25 01:29:33;;;;;;;9.82;3.70;;;;;;;6.42;100.00;93202.03;2571428;22;20000;-80
2023/05/25 01:30:36;;;;;;;16.77;4.15;;;;;;;6.43;100.00;93213.41;2571147;22;20008;-80
2023/05/25 01:31:38;;;;;;;14.60;4.30;;;;;;;6.48;100.00;93211.09;2582558;22;20031;-80
2023/05/25 01:32:43;;;;;;;18.50;4.13;;;;;;;6.42;100.00;93207.34;2607156;22;20055;-81
2023/05/25 01:33:46;;;;;;;12.25;4.15;;;;;;;6.51;100.00;93210.31;2595630;22;20461;-79
2023/05/25 01:34:47;;;;;;;11.93;3.70;;;;;;;6.48;100.00;93218.31;2594825;22;20000;-79
2023/05/25 01:35:49;;;;;;;15.27;4.10;;;;;;;6.44;100.00;93206.94;2595126;22;19999;-79
2023/05/25 01:36:51;;;;;;;11.15;3.67;;;;;;;6.45;100.00;93213.75;2595336;22;20059;-80
2023/05/25 01:37:52;;;;;;;7.55;3.78;;;;;;;6.53;100.00;93216.00;2607834;22;20049;-80
2023/05/25 01:38:54;;;;;;;15.70;4.30;;;;;;;6.46;100.00;93217.94;2607340;22;20003;-78
2023/05/25 01:39:55;;;;;;;13.07;4.10;;;;;;;6.48;100.00;93219.06;2582127;22;20517;-80
2023/05/25 01:40:56;;;;;;;14.57;4.72;;;;;;;6.40;100.00;93217.56;2594601;22;20011;-80
2023/05/25 01:41:58;;;;;;;9.02;3.92;;;;;;;6.45;100.00;93219.06;2594587;22;20026;-82
2023/05/25 01:42:59;;;;;;;12.23;4.18;;;;;;;6.45;100.00;93213.75;2569670;22;20791;-81
2023/05/25 01:44:00;;;;;;;13.27;4.40;;;;;;;6.44;100.00;93213.00;2569689;23;20012;-79
2023/05/25 01:45:01;;;;;;;17.60;4.60;;;;;;;6.39;100.00;93217.97;2581788;22;20561;-79
2023/05/25 01:46:15;;;;;;;15.75;4.88;;;;;;;6.48;100.00;93215.66;2594534;22;19995;-79
2023/05/25 01:47:36;;;;;;;14.63;3.90;;;;;;;6.44;100.00;93209.59;2584846;22;20449;-77
2023/05/25 01:48:49;;;;;;;18.10;4.50;;;;;;;6.43;100.00;93208.09;2590161;22;20407;-79
2023/05/25 01:50:15;;;;;;;12.60;4.32;;;;;;;6.45;100.00;93211.09;2594540;22;20010;-77
2023/05/25 01:51:31;;;;;;;15.18;3.90;;;;;;;6.42;100.00;93209.25;2592118;22;20095;-77
2023/05/25 01:52:37;;;;;;;12.65;4.18;;;;;;;6.40;100.00;93208.84;2585305;22;20138;-78
2023/05/25 01:53:47;;;;;;;10.65;3.78;;;;;;;6.41;100.00;93210.34;2583913;22;20027;-80
2023/05/25 01:54:54;;;;;;;7.50;3.65;;;;;;;6.38;100.00;93206.59;2596172;22;20330;-81
2023/05/25 01:56:02;;;;;;;9.68;4.63;;;;;;;6.33;100.00;93207.00;2607317;22;20027;-79
2023/05/25 01:57:06;;;;;;;13.60;4.18;;;;;;;6.23;100.00;93210.44;2594760;22;20418;-77
2023/05/25 01:58:08;;;;;;;12.07;4.00;;;;;;;6.34;100.00;93221.03;2570922;22;20007;-81
2023/05/25 01:59:10;;;;;;;13.48;4.13;;;;;;;6.30;100.00;93221.78;2582382;22;20004;-79
2023/05/25 02:00:12;;;;;;;18.00;4.38;;;;;;;6.35;100.00;93217.97;2606806;22;19995;-81
2023/05/25 02:01:15;;;;;;;13.55;3.90;;;;;;;6.38;100.00;93211.16;2606881;22;20443;-80
2023/05/25 02:02:19;;;;;;;18.13;4.10;;;;;;;6.36;100.00;93218.72;2582425;22;20059;-79
2023/05/25 02:03:20;;;;;;;9.45;4.22;;;;;;;6.39;100.00;93207.34;2595447;22;20000;-81
2023/05/25 02:04:22;;;;;;;20.77;5.22;;;;;;;6.38;100.00;93222.53;2607673;22;20185;-81
2023/05/25 02:05:23;;;;;;;12.05;4.88;;;;;;;6.43;100.00;93203.53;2594656;22;20099;-78
2023/05/25 02:06:25;;;;;;;12.35;4.85;;;;;;;6.41;100.00;93210.34;2595114;22;20004;-78
2023/05/25 02:07:26;;;;;;;11.73;3.90;;;;;;;6.38;100.00;93205.84;2582706;22;20011;-80
2023/05/25 02:08:28;;;;;;;14.45;4.55;;;;;;;6.34;100.00;93215.72;2582429;22;20030;-78
2023/05/25 02:09:29;;;;;;;10.00;4.70;;;;;;;6.48;100.00;93210.34;2594336;22;20410;-79
2023/05/25 02:10:30;;;;;;;12.13;4.15;;;;;;;6.41;100.00;93207.69;2607092;22;20003;-79
2023/05/25 02:11:31;;;;;;;13.40;4.45;;;;;;;6.39;100.00;93205.44;2594711;22;20035;-78
2023/05/25 02:12:32;;;;;;;10.15;4.05;;;;;;;6.38;100.00;93206.59;2569567;22;20032;-78
2023/05/25 02:13:35;;;;;;;14.43;4.40;;;;;;;6.35;100.00;93198.63;2581540;22;20130;-78
2023/05/25 02:14:38;;;;;;;10.88;4.15;;;;;;;6.30;100.00;93199.81;2581845;22;20003;-78
2023/05/25 02:15:40;;;;;;;15.00;4.50;;;;;;;6.29;100.00;93199.03;2595143;22;20089;-79
2023/05/25 02:16:44;;;;;;;14.48;4.70;;;;;;;6.31;100.00;93196.00;2581995;22;20029;-80
2023/05/25 02:17:47;;;;;;;20.55;4.80;;;;;;;6.39;100.00;93194.81;2570576;22;20452;-81
2023/05/25 02:18:50;;;;;;;11.32;4.80;;;;;;;6.41;100.00;93194.44;2582512;22;20435;-80
2023/05/25 02:19:51;;;;;;;12.05;4.30;;;;;;;6.36;100.00;93197.50;2594846;22;20050;-77
2023/05/25 02:20:53;;;;;;;18.65;4.45;;;;;;;6.35;100.00;93191.44;2594595;22;19999;-78
2023/05/25 02:21:56;;;;;;;12.70;4.10;;;;;;;6.34;100.00;93195.22;2594386;22;20444;-80
2023/05/25 02:22:57;;;;;;;17.52;4.57;;;;;;;6.48;100.00;93189.09;2581695;22;20036;-79
2023/05/25 02:23:59;;;;;;;18.70;4.93;;;;;;;6.39;100.00;93186.09;2581696;22;20059;-78
2023/05/25 02:25:00;;;;;;;13.77;4.28;;;;;;;6.34;100.00;93191.81;2581766;22;20011;-79
2023/05/25 02:26:02;;;;;;;12.52;3.90;;;;;;;6.28;100.00;93184.28;2581596;23;20000;-80
2023/05/25 02:27:06;;;;;;;15.23;4.82;;;;;;;6.24;100.00;93190.72;2594813;22;20422;-79
2023/05/25 02:28:07;;;;;;;12.70;4.32;;;;;;;6.21;100.00;93197.56;2594280;22;20010;-79
2023/05/25 02:29:08;;;;;;;12.40;4.47;;;;;;;6.21;100.00;93186.19;2582173;22;20008;-79
2023/05/25 02:30:10;;;;;;;11.73;3.97;;;;;;;6.18;100.00;93194.91;2581953;22;20083;-81
2023/05/25 02:31:11;;;;;;;11.40;4.35;;;;;;;6.25;100.00;93187.69;2581356;22;20485;-78
2023/05/25 02:32:12;;;;;;;10.68;3.88;;;;;;;6.26;100.00;93199.06;2581498;22;20003;-77
2023/05/25 02:33:13;;;;;;;10.32;3.55;;;;;;;6.27;100.00;93192.59;2581809;22;20000;-79
2023/05/25 02:34:14;;;;;;;12.55;4.75;;;;;;;6.25;100.00;93197.56;2581931;22;20000;-79
2023/05/25 02:35:15;;;;;;;13.20;4.22;;;;;;;6.20;100.00;93195.31;2581625;22;20066;-78
2023/05/25 02:36:18;;;;;;;13.73;4.53;;;;;;;6.24;100.00;93196.78;2582340;22;20019;-79
2023/05/25 02:37:18;;;;;;;13.73;4.75;;;;;;;6.19;100.00;93199.06;2581711;23;20438;-80
2023/05/25 02:38:20;;;;;;;12.35;4.03;;;;;;;6.29;100.00;93195.63;2581676;22;20036;-80
2023/05/25 02:39:20;;;;;;;12.75;4.05;;;;;;;6.26;100.00;93194.50;2582062;22;20008;-80
2023/05/25 02:40:21;;;;;;;12.43;4.30;;;;;;;6.41;100.00;93197.88;2581478;22;20000;-82
2023/05/25 02:41:25;;;;;;;12.63;4.78;;;;;;;6.33;100.00;93203.59;2581900;22;20062;-80
2023/05/25 02:42:26;;;;;;;11.52;4.07;;;;;;;6.32;100.00;93200.16;2582976;22;20050;-80
2023/05/25 02:43:28;;;;;;;12.88;4.28;;;;;;;6.26;100.00;93199.81;2594099;22;20091;-78
2023/05/25 02:44:30;;;;;;;15.45;4.45;;;;;;;6.31;100.00;93199.41;2594729;22;20778;-79
2023/05/25 02:45:31;;;;;;;14.20;4.28;;;;;;;6.33;100.00;93201.69;2594887;22;20436;-78
2023/05/25 02:46:32;;;;;;;13.32;3.92;;;;;;;6.33;100.00;93198.28;2594651;22;20046;-81
2023/05/25 02:47:34;;;;;;;14.93;4.07;;;;;;;6.30;100.00;93205.84;2594620;22;20358;-79
2023/05/25 02:48:35;;;;;;;13.30;4.10;;;;;;;6.34;100.00;93200.53;2594423;22;19999;-79
2023/05/25 02:49:36;;;;;;;16.42;4.68;;;;;;;6.35;100.00;93194.09;2594446;22;20035;-81
2023/05/25 02:50:43;;;;;;;16.58;4.47;;;;;;;6.36;100.00;93192.19;2581570;22;20008;-79
2023/05/25 02:51:44;;;;;;;14.85;4.55;;;;;;;6.34;100.00;93197.13;2584208;22;20012;-80
2023/05/25 02:52:45;;;;;;;11.98;4.03;;;;;;;6.25;100.00;93197.56;2581589;22;20008;-81
2023/05/25 02:53:47;;;;;;;13.02;4.22;;;;;;;6.27;100.00;93197.91;2581852;22;20008;-80
2023/05/25 02:54:48;;;;;;;17.35;4.13;;;;;;;6.25;100.00;93206.25;2607473;22;20110;-78
2023/05/25 02:55:49;;;;;;;13.07;3.97;;;;;;;6.30;100.00;93192.59;2607008;22;20406;-78
2023/05/25 02:56:50;;;;;;;16.77;4.65;;;;;;;6.38;100.00;93195.97;2581712;22;20059;-81
2023/05/25 02:57:51;;;;;;;12.57;4.45;;;;;;;6.43;100.00;93200.13;2594184;22;20449;-79
2023/05/25 02:58:52;;;;;;;13.95;4.97;;;;;;;6.44;100.00;93202.38;2607147;22;19999;-78
2023/05/25 02:59:53;;;;;;;15.27;4.40;;;;;;;6.48;100.00;93202.38;2594148;22;20071;-81
2023/05/25 03:00:54;;;;;;;15.52;4.60;;;;;;;6.42;100.00;93201.28;2594116;22;20078;-82
2023/05/25 03:01:57;;;;;;;13.73;4.75;;;;;;;6.42;100.00;93201.28;2581145;22;20014;-79
2023/05/25 03:02:58;;;;;;;10.10;4.32;;;;;;;6.41;100.00;93199.75;2581840;22;20004;-78
2023/05/25 03:03:59;;;;;;;12.43;4.93;;;;;;;6.41;100.00;93200.53;2593965;22;20426;-78
2023/05/25 03:05:00;;;;;;;13.60;4.10;;;;;;;6.43;100.00;93195.56;2594168;22;20038;-80
2023/05/25 03:06:03;;;;;;;14.25;5.35;;;;;;;6.39;100.00;93200.13;2594189;22;20395;-81
2023/05/25 03:07:04;;;;;;;16.45;4.82;;;;;;;6.43;100.00;93200.88;2582535;22;20039;-79
2023/05/25 03:08:05;;;;;;;12.77;5.65;;;;;;;6.41;100.00;93200.53;2594276;22;20049;-80
2023/05/25 03:09:08;;;;;;;12.73;4.50;;;;;;;6.39;100.00;93197.47;2594351;22;20053;-80
2023/05/25 03:10:10;;;;;;;15.18;5.18;;;;;;;6.41;100.00;93199.75;2594693;22;19999;-79
2023/05/25 03:11:11;;;;;;;13.40;5.20;;;;;;;6.42;100.00;93201.28;2594200;22;20061;-80
2023/05/25 03:12:12;;;;;;;14.05;4.72;;;;;;;6.33;100.00;93199.03;2581601;23;20054;-79
2023/05/25 03:13:13;;;;;;;14.75;4.63;;;;;;;6.33;100.00;93201.69;2581643;22;19992;-80
2023/05/25 03:14:14;;;;;;;15.40;5.43;;;;;;;6.38;100.00;93197.88;2594714;22;20461;-81
2023/05/25 03:15:15;;;;;;;13.15;5.45;;;;;;;6.30;100.00;93197.91;2594231;22;20172;-81
2023/05/25 03:16:18;;;;;;;15.68;4.72;;;;;;;6.32;100.00;93200.16;2595148;22;20003;-81
2023/05/25 03:17:19;;;;;;;16.17;4.47;;;;;;;6.29;100.00;93201.69;2582482;22;20004;-79
2023/05/25 03:18:20;;;;;;;13.50;4.63;;;;;;;6.26;100.00;93209.66;2582146;22;20055;-81
2023/05/25 03:19:23;;;;;;;13.43;5.00;;;;;;;6.22;100.00;93206.28;2607640;22;19999;-80
2023/05/25 03:20:25;;;;;;;12.85;4.80;;;;;;;6.24;100.00;93207.41;2607613;22;20089;-80
2023/05/25 03:21:26;;;;;;;15.05;4.78;;;;;;;6.26;100.00;93212.31;2607765;22;20014;-80
2023/05/25 03:22:35;;;;;;;13.82;4.78;;;;;;;6.21;100.00;93210.06;2595095;22;20031;-79
2023/05/25 03:23:36;;;;;;;14.18;5.72;;;;;;;6.21;100.00;93202.13;2585318;22;20012;-78
2023/05/25 03:24:40;;;;;;;10.85;4.78;;;;;;;6.16;100.00;93197.97;2582116;22;20032;-79
2023/05/25 03:25:43;;;;;;;19.52;4.88;;;;;;;6.13;100.00;93203.28;2596042;22;19999;-81
2023/05/25 03:26:44;;;;;;;11.80;4.90;;;;;;;6.02;100.00;93208.63;2594907;22;20110;-79
2023/05/25 03:27:45;;;;;;;13.88;4.40;;;;;;;6.08;100.00;93198.38;2569567;23;20083;-83
2023/05/25 03:28:47;;;;;;;12.57;4.70;;;;;;;6.01;100.00;93199.13;2582783;22;20018;-78
2023/05/25 03:29:49;;;;;;;11.30;4.57;;;;;;;6.01;100.00;93199.91;2594604;22;20086;-78
2023/05/25 03:30:50;;;;;;;11.30;5.13;;;;;;;6.12;100.00;93207.84;2570315;22;20000;-79
2023/05/25 03:31:51;;;;;;;14.38;5.00;;;;;;;6.03;100.00;93202.19;2595038;22;20015;-80
2023/05/25 03:32:52;;;;;;;18.80;5.10;;;;;;;6.07;100.00;93208.22;2607669;22;20103;-78
2023/05/25 03:33:53;;;;;;;11.68;4.55;;;;;;;6.00;100.00;93205.59;2608055;22;20532;-81
2023/05/25 03:34:57;;;;;;;12.65;5.20;;;;;;;5.97;100.00;93207.13;2608543;22;20003;-79
2023/05/25 03:35:58;;;;;;;12.85;5.22;;;;;;;5.95;100.00;93203.34;2595053;22;19999;-81
2023/05/25 03:36:59;;;;;;;13.27;4.78;;;;;;;6.02;100.00;93206.72;2595116;22;20024;-80
2023/05/25 03:38:01;;;;;;;15.57;4.90;;;;;;;5.96;100.00;93205.59;2595104;22;20006;-81
2023/05/25 03:39:02;;;;;;;14.05;5.10;;;;;;;5.95;100.00;93198.78;2583165;22;20327;-79
2023/05/25 03:40:04;;;;;;;14.27;5.00;;;;;;;5.88;100.00;93205.97;2594733;22;19998;-78
2023/05/25 03:41:05;;;;;;;14.73;4.47;;;;;;;5.94;100.00;93207.13;2582395;22;20007;-80
2023/05/25 03:42:06;;;;;;;11.98;4.70;;;;;;;5.98;100.00;93207.88;2595262;22;20042;-78
2023/05/25 03:43:08;;;;;;;14.18;5.10;;;;;;;5.90;100.00;93204.47;2594858;22;20082;-79
2023/05/25 03:44:10;;;;;;;15.73;4.78;;;;;;;5.99;100.00;93212.78;2595504;22;20010;-79
2023/05/25 03:45:14;;;;;;;13.82;4.80;;;;;;;5.93;100.00;93209.03;2595120;22;20023;-80
2023/05/25 03:46:15;;;;;;;9.80;4.35;;;;;;;5.88;100.00;93206.72;2582893;22;20509;-77
2023/05/25 03:47:18;;;;;;;15.85;5.03;;;;;;;5.74;100.00;93209.41;2582662;22;20054;-81
2023/05/25 03:48:19;;;;;;;12.30;5.22;;;;;;;5.70;100.00;93206.00;2595523;22;20022;-82
2023/05/25 03:49:20;;;;;;;18.67;6.32;;;;;;;5.65;100.00;93203.75;2595126;22;20432;-80
2023/05/25 03:50:21;;;;;;;18.80;6.32;;;;;;;5.64;100.00;93205.66;2594806;22;20094;-81
2023/05/25 03:51:22;;;;;;;10.85;5.65;;;;;;;5.66;100.00;93198.06;2582453;22;20022;-81
2023/05/25 03:52:24;;;;;;;14.75;5.38;;;;;;;5.60;100.00;93201.50;2594847;22;20022;-81
2023/05/25 03:53:25;;;;;;;22.73;6.25;;;;;;;5.58;100.00;93201.88;2581909;22;20011;-80
2023/05/25 03:54:26;;;;;;;17.02;6.75;;;;;;;5.58;100.00;93209.09;2582274;22;20008;-79
2023/05/25 03:55:27;;;;;;;14.55;5.60;;;;;;;5.63;100.00;93206.78;2607911;22;20445;-77
2023/05/25 03:56:30;;;;;;;16.20;5.55;;;;;;;5.53;100.00;93213.63;2608614;22;20031;-79
2023/05/25 03:57:31;;;;;;;10.52;4.93;;;;;;;5.48;100.00;93207.94;2607710;22;19999;-80
2023/05/25 03:58:32;;;;;;;12.90;5.32;;;;;;;5.44;100.00;93215.88;2582259;22;20000;-79
2023/05/25 03:59:33;;;;;;;12.15;4.93;;;;;;;5.41;100.00;93216.66;2569805;22;20008;-78
2023/05/25 04:00:34;;;;;;;13.93;4.88;;;;;;;5.41;100.00;93211.38;2572947;23;20015;-78
2023/05/25 04:01:37;;;;;;;18.70;5.35;;;;;;;5.44;100.00;93218.53;2582347;22;20015;-79
2023/05/25 04:02:38;;;;;;;13.77;5.25;;;;;;;5.44;100.00;93207.19;2595543;22;20125;-81
2023/05/25 04:03:39;;;;;;;13.15;5.30;;;;;;;5.47;100.00;93217.03;2595121;22;20065;-77
2023/05/25 04:04:40;;;;;;;18.27;4.90;;;;;;;5.43;100.00;93208.31;2595239;22;20488;-79
2023/05/25 04:05:44;;;;;;;17.00;5.15;;;;;;;5.44;100.00;93215.13;2608159;22;20441;-76
2023/05/25 04:06:47;;;;;;;12.02;5.13;;;;;;;5.35;100.00;93212.13;2583109;22;20012;-79
2023/05/25 04:07:49;;;;;;;16.45;5.43;;;;;;;5.46;100.00;93212.88;2583126;22;20000;-80
2023/05/25 04:08:52;;;;;;;19.48;6.22;;;;;;;5.49;100.00;93215.53;2582825;22;20003;-78
2023/05/25 04:09:58;;;;;;;19.30;5.60;;;;;;;5.46;100.00;93218.94;2582826;22;20008;-78
2023/05/25 04:11:01;;;;;;;15.45;5.97;;;;;;;5.46;100.00;93221.59;2572174;22;20005;-79
2023/05/25 04:12:02;;;;;;;16.23;6.40;;;;;;;5.53;100.00;93226.09;2584330;22;20104;-81
2023/05/25 04:13:03;;;;;;;16.27;6.32;;;;;;;5.56;100.00;93218.16;2607901;22;20091;-80
2023/05/25 04:14:04;;;;;;;19.13;6.60;;;;;;;5.55;100.00;93224.59;2582786;22;20038;-81
2023/05/25 04:15:07;;;;;;;14.80;5.60;;;;;;;5.53;100.00;93228.75;2594898;22;20011;-78
2023/05/25 04:16:11;;;;;;;13.95;5.00;;;;;;;5.45;100.00;93221.97;2595571;22;20369;-81
2023/05/25 04:17:12;;;;;;;14.38;5.53;;;;;;;5.49;100.00;93222.72;2607674;22;20450;-81
2023/05/25 04:18:13;;;;;;;14.00;5.63;;;;;;;5.48;100.00;93229.91;2595076;22;20128;-81
2023/05/25 04:19:14;;;;;;;18.88;5.70;;;;;;;5.50;100.00;93232.94;2582585;22;20454;-78
2023/05/25 04:20:15;;;;;;;13.43;5.35;;;;;;;5.52;100.00;93224.59;2594918;22;20156;-78
2023/05/25 04:21:17;;;;;;;11.93;4.65;;;;;;;5.75;100.00;93224.19;2582280;22;20008;-77
2023/05/25 04:22:18;;;;;;;12.98;4.70;;;;;;;5.66;100.00;93227.22;2582583;22;20335;-78
2023/05/25 04:23:20;;;;;;;13.93;5.13;;;;;;;5.69;100.00;93229.13;2594286;22;20008;-81
2023/05/25 04:24:29;;;;;;;13.88;5.40;;;;;;;5.64;100.00;93223.47;2582772;22;20361;-80
2023/05/25 04:25:31;;;;;;;13.98;4.85;;;;;;;5.59;100.00;93227.25;2572662;22;20000;-79
2023/05/25 04:26:32;;;;;;;17.77;6.50;;;;;;;5.49;100.00;93233.34;2582962;22;20366;-80
2023/05/25 04:27:33;;;;;;;18.83;6.53;;;;;;;5.52;100.00;93235.19;2595604;22;20426;-79
2023/05/25 04:28:35;;;;;;;17.83;6.70;;;;;;;5.54;100.00;93230.28;2595587;22;20049;-79
2023/05/25 04:29:37;;;;;;;19.70;5.50;;;;;;;5.68;100.00;93226.88;2586480;22;20004;-77
2023/05/25 04:30:41;;;;;;;16.55;5.30;;;;;;;5.65;100.00;93225.72;2599197;22;20015;-80
2023/05/25 04:31:46;;;;;;;15.63;5.20;;;;;;;5.63;100.00;93222.69;2598006;22;20042;-79
2023/05/25 04:32:47;;;;;;;16.65;5.68;;;;;;;5.60;100.00;93220.06;2597920;22;20015;-77
2023/05/25 04:33:49;;;;;;;12.60;4.90;;;;;;;5.58;100.00;93225.00;2585647;22;20007;-80
2023/05/25 04:34:50;;;;;;;14.48;5.05;;;;;;;5.58;100.00;93219.69;2572805;22;20092;-79
2023/05/25 04:35:53;;;;;;;15.68;5.80;;;;;;;5.62;100.00;93218.53;2571011;23;20008;-79
2023/05/25 04:36:55;;;;;;;13.18;5.00;;;;;;;5.56;100.00;93226.09;2596630;22;20003;-78
2023/05/25 04:37:59;;;;;;;11.95;5.10;;;;;;;5.55;100.00;93227.25;2608371;22;20045;-79
2023/05/25 04:39:03;;;;;;;16.33;4.70;;;;;;;5.51;100.00;93231.81;2595971;22;20004;-79
2023/05/25 04:40:08;;;;;;;15.10;5.07;;;;;;;5.56;100.00;93234.06;2595126;22;20366;-79
2023/05/25 04:41:09;;;;;;;16.13;5.15;;;;;;;5.61;100.00;93237.47;2585494;22;19999;-81
2023/05/25 04:42:11;;;;;;;16.02;5.68;;;;;;;5.74;100.00;93234.03;2595485;22;20000;-80
2023/05/25 04:43:17;;;;;;;18.30;5.60;;;;;;;5.68;100.00;93234.81;2608269;22;20042;-81
2023/05/25 04:44:19;;;;;;;17.88;5.05;;;;;;;5.66;100.00;93231.78;2608070;22;19999;-79
2023/05/25 04:45:20;;;;;;;12.23;5.15;;;;;;;5.62;100.00;93231.03;2582067;22;20030;-77
2023/05/25 04:46:22;;;;;;;19.80;6.03;;;;;;;5.60;100.00;93233.31;2575805;22;20011;-79
2023/05/25 04:47:23;;;;;;;16.55;5.93;;;;;;;5.64;100.00;93228.75;2591021;22;20010;-78
2023/05/25 04:48:27;;;;;;;17.08;5.55;;;;;;;5.59;100.00;93234.44;2604913;22;20007;-78
2023/05/25 04:49:28;;;;;;;15.95;5.20;;;;;;;5.66;100.00;93232.53;2580226;22;20027;-77
2023/05/25 04:50:29;;;;;;;16.85;5.55;;;;;;;5.72;100.00;93232.91;2566651;22;20036;-79
2023/05/25 04:51:31;;;;;;;12.40;5.22;;;;;;;5.77;100.00;93233.28;2576979;22;20012;-80
2023/05/25 04:52:32;;;;;;;16.98;5.55;;;;;;;5.79;100.00;93235.53;2593282;22;20062;-80